createdAt,value
2024-01-16T00:00:13.381Z,93974.00
2024-01-16T00:01:13.417Z,93974.00
2024-01-16T00:02:13.407Z,93974.00
2024-01-16T00:03:13.408Z,93975.00
2024-01-16T00:04:13.684Z,93973.00
2024-01-16T00:05:13.518Z,93975.00
2024-01-16T00:06:13.517Z,93977.00
2024-01-16T00:07:13.499Z,93981.00
2024-01-16T00:08:13.429Z,93981.00
2024-01-16T00:09:13.401Z,93981.00
2024-01-16T00:10:13.417Z,93978.00
2024-01-16T00:11:13.443Z,93977.00
2024-01-16T00:12:13.398Z,93980.00
2024-01-16T00:13:13.426Z,93979.00
2024-01-16T00:14:13.469Z,93979.00
2024-01-16T00:15:13.401Z,93977.00
2024-01-16T00:16:13.436Z,93979.00
2024-01-16T00:17:13.430Z,93977.00
2024-01-16T00:18:13.572Z,93977.00
2024-01-16T00:19:13.575Z,93978.00
2024-01-16T00:20:13.483Z,93977.00
2024-01-16T00:21:13.441Z,93978.00
2024-01-16T00:22:13.428Z,93975.00
2024-01-16T00:23:13.439Z,93979.00
2024-01-16T00:24:13.451Z,93982.00
2024-01-16T00:25:13.446Z,93988.00
2024-01-16T00:26:13.563Z,93992.00
2024-01-16T00:27:13.418Z,93991.00
2024-01-16T00:28:13.423Z,93991.00
2024-01-16T00:29:13.811Z,93992.00
2024-01-16T00:30:13.455Z,93991.00
2024-01-16T00:31:13.450Z,93992.00
2024-01-16T00:32:13.458Z,93992.00
2024-01-16T00:33:13.621Z,93993.00
2024-01-16T00:34:13.485Z,93995.00
2024-01-16T00:35:13.484Z,93994.00
2024-01-16T00:36:13.476Z,93999.00
2024-01-16T00:37:13.457Z,93999.00
2024-01-16T00:38:13.507Z,93998.00
2024-01-16T00:39:13.489Z,94000.00
2024-01-16T00:40:13.488Z,93998.00
2024-01-16T00:41:13.544Z,94002.00
2024-01-16T00:42:13.483Z,94001.00
2024-01-16T00:43:13.531Z,94003.00
2024-01-16T00:44:13.550Z,94005.00
2024-01-16T00:45:13.541Z,94006.00
2024-01-16T00:46:13.581Z,94007.00
2024-01-16T00:47:13.634Z,94009.00
2024-01-16T00:48:13.865Z,94009.00
2024-01-16T00:49:13.718Z,94008.00
2024-01-16T00:50:13.657Z,94005.00
2024-01-16T00:51:13.615Z,94008.00
2024-01-16T00:52:13.673Z,94007.00
2024-01-16T00:53:13.738Z,94008.00
2024-01-16T00:54:13.709Z,94009.00
2024-01-16T00:55:13.721Z,94007.00
2024-01-16T00:56:13.930Z,94011.00
2024-01-16T00:57:13.766Z,94010.00
2024-01-16T00:58:13.769Z,94014.00
2024-01-16T00:59:13.878Z,94016.00
2024-01-16T01:00:13.794Z,94020.00
2024-01-16T01:01:13.841Z,94020.00
2024-01-16T01:02:13.860Z,94022.00
2024-01-16T01:03:13.826Z,94023.00
2024-01-16T01:04:13.919Z,94023.00
2024-01-16T01:05:13.993Z,94022.00
2024-01-16T01:06:13.966Z,94022.00
2024-01-16T01:07:13.933Z,94024.00
2024-01-16T01:08:13.993Z,94023.00
2024-01-16T01:09:13.968Z,94024.00
2024-01-16T01:10:14.013Z,94023.00
2024-01-16T01:11:14.055Z,94028.00
2024-01-16T01:12:14.018Z,94029.00
2024-01-16T01:13:14.014Z,94035.00
2024-01-16T01:14:14.202Z,94036.00
2024-01-16T01:15:14.151Z,94041.00
2024-01-16T01:16:14.092Z,94041.00
2024-01-16T01:17:14.126Z,94045.00
2024-01-16T01:18:14.220Z,94044.00
2024-01-16T01:19:14.217Z,94041.00
2024-01-16T01:20:14.186Z,94042.00
2024-01-16T01:21:14.180Z,94039.00
2024-01-16T01:22:14.188Z,94038.00
2024-01-16T01:23:14.291Z,94039.00
2024-01-16T01:24:14.244Z,94041.00
2024-01-16T01:25:14.245Z,94042.00
2024-01-16T01:26:14.353Z,94047.00
2024-01-16T01:27:14.265Z,94048.00
2024-01-16T01:28:14.333Z,94046.00
2024-01-16T01:29:14.371Z,94046.00
2024-01-16T01:30:14.419Z,94043.00
2024-01-16T01:31:14.377Z,94043.00
2024-01-16T01:32:14.423Z,94044.00
2024-01-16T01:33:14.625Z,94043.00
2024-01-16T01:34:14.500Z,94045.00
2024-01-16T01:35:14.481Z,94045.00
2024-01-16T01:36:14.483Z,94045.00
2024-01-16T01:37:14.512Z,94049.00
2024-01-16T01:38:14.593Z,94049.00
2024-01-16T01:39:14.569Z,94049.00
2024-01-16T01:40:14.593Z,94049.00
2024-01-16T01:41:14.623Z,94052.00
2024-01-16T01:42:14.650Z,94053.00
2024-01-16T01:43:14.678Z,94052.00
2024-01-16T01:44:14.702Z,94049.00
2024-01-16T01:45:14.682Z,94050.00
2024-01-16T01:46:14.694Z,94049.00
2024-01-16T01:47:14.789Z,94050.00
2024-01-16T01:48:14.930Z,94050.00
2024-01-16T01:49:14.822Z,94053.00
2024-01-16T01:50:14.863Z,94058.00
2024-01-16T01:51:14.826Z,94062.00
2024-01-16T01:52:14.876Z,94069.00
2024-01-16T01:53:14.934Z,94070.00
2024-01-16T01:54:14.928Z,94071.00
2024-01-16T01:55:14.990Z,94073.00
2024-01-16T01:56:14.997Z,94075.00
2024-01-16T01:57:14.961Z,94073.00
2024-01-16T01:58:14.960Z,94075.00
2024-01-16T01:59:15.001Z,94075.00
2024-01-16T02:00:15.035Z,94075.00
2024-01-16T02:01:15.170Z,94072.00
2024-01-16T02:02:15.143Z,94075.00
2024-01-16T02:03:15.180Z,94075.00
2024-01-16T02:04:15.171Z,94080.00
2024-01-16T02:05:15.220Z,94083.00
2024-01-16T02:06:15.306Z,94086.00
2024-01-16T02:07:15.222Z,94089.00
2024-01-16T02:08:15.316Z,94088.00
2024-01-16T02:09:15.310Z,94085.00
2024-01-16T02:10:15.313Z,94086.00
2024-01-16T02:11:15.392Z,94085.00
2024-01-16T02:12:15.349Z,94088.00
2024-01-16T02:13:15.356Z,94091.00
2024-01-16T02:14:15.478Z,94090.00
2024-01-16T02:15:15.441Z,94090.00
2024-01-16T02:16:15.451Z,94091.00
2024-01-16T02:17:15.453Z,94092.00
2024-01-16T02:18:15.539Z,94095.00
2024-01-16T02:19:15.524Z,94096.00
2024-01-16T02:20:15.585Z,94093.00
2024-01-16T02:21:15.584Z,94093.00
2024-01-16T02:22:15.623Z,94094.00
2024-01-16T02:23:15.680Z,94092.00
2024-01-16T02:24:15.649Z,94092.00
2024-01-16T02:25:15.671Z,94094.00
2024-01-16T02:26:15.793Z,94092.00
2024-01-16T02:27:15.720Z,94094.00
2024-01-16T02:28:15.761Z,94094.00
2024-01-16T02:29:15.781Z,94098.00
2024-01-16T02:30:15.915Z,94095.00
2024-01-16T02:31:15.862Z,94096.00
2024-01-16T02:32:15.904Z,94095.00
2024-01-16T02:33:16.084Z,94094.00
2024-01-16T02:34:16.085Z,94097.00
2024-01-16T02:35:16.038Z,94097.00
2024-01-16T02:36:16.038Z,94099.00
2024-01-16T02:37:16.090Z,94102.00
2024-01-16T02:38:16.160Z,94103.00
2024-01-16T02:39:16.147Z,94102.00
2024-01-16T02:40:16.225Z,94101.00
2024-01-16T02:41:16.285Z,94101.00
2024-01-16T02:42:16.225Z,94101.00
2024-01-16T02:43:16.276Z,94100.00
2024-01-16T02:44:16.402Z,94102.00
2024-01-16T02:45:16.342Z,94104.00
2024-01-16T02:46:16.427Z,94102.00
2024-01-16T02:47:16.415Z,94103.00
2024-01-16T02:48:16.570Z,94104.00
2024-01-16T02:49:16.510Z,94106.00
2024-01-16T02:50:16.558Z,94108.00
2024-01-16T02:51:16.567Z,94109.00
2024-01-16T02:52:16.606Z,94112.00
2024-01-16T02:53:16.671Z,94113.00
2024-01-16T02:54:16.650Z,94110.00
2024-01-16T02:55:16.674Z,94109.00
2024-01-16T02:56:16.738Z,94110.00
2024-01-16T02:57:16.782Z,94107.00
2024-01-16T02:58:16.816Z,94111.00
2024-01-16T02:59:16.882Z,94110.00
2024-01-16T03:00:16.859Z,94110.00
2024-01-16T03:01:16.976Z,94114.00
2024-01-16T03:02:16.961Z,94115.00
2024-01-16T03:03:16.978Z,94118.00
2024-01-16T03:04:16.988Z,94118.00
2024-01-16T03:05:17.099Z,94120.00
2024-01-16T03:06:17.183Z,94122.00
2024-01-16T03:07:17.100Z,94122.00
2024-01-16T03:08:17.192Z,94126.00
2024-01-16T03:09:17.145Z,94125.00
2024-01-16T03:10:17.211Z,94128.00
2024-01-16T03:11:17.273Z,94130.00
2024-01-16T03:12:17.290Z,94130.00
2024-01-16T03:13:17.348Z,94129.00
2024-01-16T03:14:17.459Z,94131.00
2024-01-16T03:15:17.402Z,94130.00
2024-01-16T03:16:17.408Z,94127.00
2024-01-16T03:17:17.472Z,94129.00
2024-01-16T03:18:17.647Z,94128.00
2024-01-16T03:19:17.533Z,94129.00
2024-01-16T03:20:17.633Z,94129.00
2024-01-16T03:21:17.606Z,94129.00
2024-01-16T03:22:17.604Z,94130.00
2024-01-16T03:23:17.668Z,94130.00
2024-01-16T03:24:17.710Z,94129.00
2024-01-16T03:25:17.721Z,94130.00
2024-01-16T03:26:17.891Z,94133.00
2024-01-16T03:27:17.821Z,94134.00
2024-01-16T03:28:17.830Z,94136.00
2024-01-16T03:29:18.003Z,94139.00
2024-01-16T03:30:18.096Z,94138.00
2024-01-16T03:31:17.992Z,94139.00
2024-01-16T03:32:17.998Z,94139.00
2024-01-16T03:33:18.225Z,94138.00
2024-01-16T03:34:18.040Z,94133.00
2024-01-16T03:35:18.083Z,94132.00
2024-01-16T03:36:18.090Z,94132.00
2024-01-16T03:37:18.160Z,94132.00
2024-01-16T03:38:18.201Z,94128.00
2024-01-16T03:39:18.220Z,94132.00
2024-01-16T03:40:18.283Z,94133.00
2024-01-16T03:41:18.318Z,94136.00
2024-01-16T03:42:18.332Z,94137.00
2024-01-16T03:43:18.364Z,94139.00
2024-01-16T03:44:18.448Z,94137.00
2024-01-16T03:45:18.443Z,94134.00
2024-01-16T03:46:18.503Z,94132.00
2024-01-16T03:47:18.554Z,94133.00
2024-01-16T03:48:18.767Z,94135.00
2024-01-16T03:49:18.692Z,94136.00
2024-01-16T03:50:18.713Z,94138.00
2024-01-16T03:51:18.711Z,94139.00
2024-01-16T03:52:18.728Z,94142.00
2024-01-16T03:53:18.842Z,94142.00
2024-01-16T03:54:18.845Z,94140.00
2024-01-16T03:55:18.910Z,94139.00
2024-01-16T03:56:19.009Z,94136.00
2024-01-16T03:57:18.995Z,94138.00
2024-01-16T03:58:19.023Z,94140.00
2024-01-16T03:59:19.082Z,94141.00
2024-01-16T04:00:19.099Z,94142.00
2024-01-16T04:01:19.211Z,94143.00
2024-01-16T04:02:19.339Z,94143.00
2024-01-16T04:03:19.249Z,94145.00
2024-01-16T04:04:19.331Z,94145.00
2024-01-16T04:05:19.497Z,94145.00
2024-01-16T04:06:19.501Z,94144.00
2024-01-16T04:07:19.470Z,94145.00
2024-01-16T04:08:26.616Z,94145.00
2024-01-16T04:09:26.572Z,94145.00
2024-01-16T04:10:26.568Z,94144.00
2024-01-16T04:11:26.592Z,94145.00
2024-01-16T04:12:26.582Z,94141.00
2024-01-16T04:13:26.591Z,94145.00
2024-01-16T04:14:26.619Z,94146.00
2024-01-16T04:15:26.599Z,94146.00
2024-01-16T04:16:26.572Z,94147.00
2024-01-16T04:17:26.625Z,94144.00
2024-01-16T04:18:26.604Z,94144.00
2024-01-16T04:19:26.589Z,94143.00
2024-01-16T04:20:26.586Z,94145.00
2024-01-16T04:21:26.582Z,94143.00
2024-01-16T04:22:26.585Z,94145.00
2024-01-16T04:23:26.624Z,94145.00
2024-01-16T04:24:26.614Z,94142.00
2024-01-16T04:25:26.606Z,94143.00
2024-01-16T04:26:26.626Z,94143.00
2024-01-16T04:27:26.587Z,94143.00
2024-01-16T04:28:26.598Z,94146.00
2024-01-16T04:29:26.671Z,94145.00
2024-01-16T04:30:26.636Z,94147.00
2024-01-16T04:31:33.802Z,94148.00
2024-01-16T04:32:33.919Z,94148.00
2024-01-16T04:33:33.876Z,94152.00
2024-01-16T04:34:33.725Z,94153.00
2024-01-16T04:35:33.773Z,94155.00
2024-01-16T04:36:33.754Z,94153.00
2024-01-16T04:37:33.763Z,94156.00
2024-01-16T04:38:33.802Z,94157.00
2024-01-16T04:39:33.732Z,94157.00
2024-01-16T04:40:33.747Z,94156.00
2024-01-16T04:41:33.811Z,94155.00
2024-01-16T04:42:33.757Z,94154.00
2024-01-16T04:43:33.782Z,94157.00
2024-01-16T04:44:33.797Z,94157.00
2024-01-16T04:45:33.767Z,94161.00
2024-01-16T04:46:33.747Z,94164.00
2024-01-16T04:47:33.873Z,94166.00
2024-01-16T04:48:33.805Z,94167.00
2024-01-16T04:49:33.854Z,94166.00
2024-01-16T04:50:33.859Z,94172.00
2024-01-16T04:51:33.738Z,94173.00
2024-01-16T04:52:33.744Z,94173.00
2024-01-16T04:53:33.850Z,94173.00
2024-01-16T04:54:33.750Z,94175.00
2024-01-16T04:55:33.756Z,94179.00
2024-01-16T04:56:33.778Z,94182.00
2024-01-16T04:57:33.751Z,94181.00
2024-01-16T04:58:33.767Z,94183.00
2024-01-16T04:59:33.819Z,94183.00
2024-01-16T05:00:33.839Z,94179.00
2024-01-16T05:01:33.821Z,94180.00
2024-01-16T05:02:33.964Z,94179.00
2024-01-16T05:03:33.991Z,94183.00
2024-01-16T05:04:34.004Z,94184.00
2024-01-16T05:05:34.233Z,94185.00
2024-01-16T05:06:34.183Z,94188.00
2024-01-16T05:07:34.181Z,94185.00
2024-01-16T05:08:34.267Z,94185.00
2024-01-16T05:09:34.251Z,94186.00
2024-01-16T05:10:34.352Z,94187.00
2024-01-16T05:11:34.416Z,94187.00
2024-01-16T05:12:34.460Z,94189.00
2024-01-16T05:13:34.471Z,94190.00
2024-01-16T05:14:34.574Z,94188.00
2024-01-16T05:15:34.615Z,94187.00
2024-01-16T05:16:34.669Z,94186.00
2024-01-16T05:17:34.824Z,94186.00
2024-01-16T05:18:34.990Z,94186.00
2024-01-16T05:19:34.879Z,94185.00
2024-01-16T05:20:34.983Z,94183.00
2024-01-16T05:21:35.030Z,94182.00
2024-01-16T05:22:35.046Z,94181.00
2024-01-16T05:23:35.202Z,94182.00
2024-01-16T05:24:35.224Z,94182.00
2024-01-16T05:25:35.279Z,94185.00
2024-01-16T05:26:35.361Z,94189.00
2024-01-16T05:27:35.397Z,94191.00
2024-01-16T05:28:35.445Z,94193.00
2024-01-16T05:29:35.579Z,94195.00
2024-01-16T05:30:35.629Z,94196.00
2024-01-16T05:31:35.645Z,94198.00
2024-01-16T05:32:35.797Z,94197.00
2024-01-16T05:33:35.841Z,94198.00
2024-01-16T05:34:35.923Z,94199.00
2024-01-16T05:35:35.884Z,94200.00
2024-01-16T05:36:35.970Z,94198.00
2024-01-16T05:37:36.065Z,94199.00
2024-01-16T05:38:36.137Z,94198.00
2024-01-16T05:39:36.215Z,94200.00
2024-01-16T05:40:36.285Z,94201.00
2024-01-16T05:41:36.326Z,94203.00
2024-01-16T05:42:36.375Z,94198.00
2024-01-16T05:43:36.430Z,94199.00
2024-01-16T05:44:36.623Z,94200.00
2024-01-16T05:45:36.574Z,94197.00
2024-01-16T05:46:36.634Z,94195.00
2024-01-16T05:47:36.860Z,94196.00
2024-01-16T05:48:36.841Z,94195.00
2024-01-16T05:49:36.933Z,94195.00
2024-01-16T05:50:37.032Z,94198.00
2024-01-16T05:51:36.963Z,94200.00
2024-01-16T05:52:37.049Z,94203.00
2024-01-16T05:53:37.198Z,94203.00
2024-01-16T05:54:37.193Z,94202.00
2024-01-16T05:55:37.336Z,94200.00
2024-01-16T05:56:37.379Z,94201.00
2024-01-16T05:57:37.423Z,94202.00
2024-01-16T05:58:37.434Z,94202.00
2024-01-16T05:59:37.537Z,94203.00
2024-01-16T06:00:37.604Z,94206.00
2024-01-16T06:01:37.656Z,94202.00
2024-01-16T06:02:37.738Z,94201.00
2024-01-16T06:03:37.809Z,94202.00
2024-01-16T06:04:37.920Z,94202.00
2024-01-16T06:05:38.142Z,94204.00
2024-01-16T06:06:38.027Z,94203.00
2024-01-16T06:07:38.060Z,94205.00
2024-01-16T06:08:38.164Z,94205.00
2024-01-16T06:09:38.218Z,94208.00
2024-01-16T06:10:38.259Z,94210.00
2024-01-16T06:11:38.446Z,94212.00
2024-01-16T06:12:38.409Z,94211.00
2024-01-16T06:13:38.494Z,94211.00
2024-01-16T06:14:38.668Z,94209.00
2024-01-16T06:15:38.665Z,94209.00
2024-01-16T06:16:38.683Z,94208.00
2024-01-16T06:17:38.882Z,94209.00
2024-01-16T06:18:38.928Z,94211.00
2024-01-16T06:19:38.961Z,94213.00
2024-01-16T06:20:38.987Z,94211.00
2024-01-16T06:21:39.009Z,94212.00
2024-01-16T06:22:39.139Z,94211.00
2024-01-16T06:23:39.198Z,94213.00
2024-01-16T06:24:39.241Z,94211.00
2024-01-16T06:25:39.307Z,94210.00
2024-01-16T06:26:39.379Z,94211.00
2024-01-16T06:27:39.433Z,94212.00
2024-01-16T06:28:39.511Z,94214.00
2024-01-16T06:29:39.570Z,94215.00
2024-01-16T06:30:39.691Z,94211.00
2024-01-16T06:31:39.697Z,94211.00
2024-01-16T06:32:39.945Z,94212.00
2024-01-16T06:33:39.947Z,94216.00
2024-01-16T06:34:39.934Z,94218.00
2024-01-16T06:35:40.015Z,94215.00
2024-01-16T06:36:40.025Z,94217.00
2024-01-16T06:37:40.102Z,94216.00
2024-01-16T06:38:40.210Z,94214.00
2024-01-16T06:39:40.206Z,94216.00
2024-01-16T06:40:40.310Z,94216.00
2024-01-16T06:41:40.381Z,94216.00
2024-01-16T06:42:40.421Z,94216.00
2024-01-16T06:43:40.512Z,94219.00
2024-01-16T06:44:40.603Z,94220.00
2024-01-16T06:45:40.607Z,94222.00
2024-01-16T06:46:40.633Z,94219.00
2024-01-16T06:47:41.065Z,94220.00
2024-01-16T06:48:40.985Z,94225.00
2024-01-16T06:49:40.880Z,94224.00
2024-01-16T06:50:40.990Z,94222.00
2024-01-16T06:51:40.898Z,94225.00
2024-01-16T06:52:40.973Z,94221.00
2024-01-16T06:53:41.023Z,94226.00
2024-01-16T06:54:41.005Z,94221.00
2024-01-16T06:55:41.452Z,94223.00
2024-01-16T06:56:41.137Z,94228.00
2024-01-16T06:57:41.426Z,94228.00
2024-01-16T06:58:41.441Z,94228.00
2024-01-16T06:59:41.200Z,94232.00
2024-01-16T07:00:41.184Z,94229.00
2024-01-16T07:01:41.175Z,94232.00
2024-01-16T07:02:41.256Z,94235.00
2024-01-16T07:03:41.210Z,94236.00
2024-01-16T07:04:41.186Z,94237.00
2024-01-16T07:05:41.634Z,94239.00
2024-01-16T07:06:41.220Z,94238.00
2024-01-16T07:07:41.242Z,94240.00
2024-01-16T07:08:41.261Z,94242.00
2024-01-16T07:09:41.233Z,94240.00
2024-01-16T07:10:41.437Z,94241.00
2024-01-16T07:11:41.268Z,94244.00
2024-01-16T07:12:41.214Z,94245.00
2024-01-16T07:13:41.244Z,94244.00
2024-01-16T07:14:41.350Z,94243.00
2024-01-16T07:15:41.255Z,94243.00
2024-01-16T07:16:41.259Z,94246.00
2024-01-16T07:17:41.406Z,94244.00
2024-01-16T07:18:43.613Z,94251.00
2024-01-16T07:19:41.343Z,94245.00
2024-01-16T07:20:41.467Z,94240.00
2024-01-16T07:21:41.307Z,94242.00
2024-01-16T07:22:41.282Z,94243.00
2024-01-16T07:23:41.302Z,94243.00
2024-01-16T07:24:41.307Z,94248.00
2024-01-16T07:25:41.299Z,94243.00
2024-01-16T07:26:41.497Z,94243.00
2024-01-16T07:27:41.299Z,94244.00
2024-01-16T07:28:41.259Z,94243.00
2024-01-16T07:29:41.338Z,94246.00
2024-01-16T07:30:41.357Z,94250.00
2024-01-16T07:31:41.309Z,94248.00
2024-01-16T07:32:41.500Z,94251.00
2024-01-16T07:33:41.434Z,94254.00
2024-01-16T07:34:41.322Z,94253.00
2024-01-16T07:35:41.292Z,94255.00
2024-01-16T07:36:41.294Z,94259.00
2024-01-16T07:37:41.324Z,94262.00
2024-01-16T07:38:41.326Z,94266.00
2024-01-16T07:39:41.347Z,94266.00
2024-01-16T07:40:41.320Z,94274.00
2024-01-16T07:41:41.354Z,94268.00
2024-01-16T07:42:41.266Z,94263.00
2024-01-16T07:43:41.341Z,94268.00
2024-01-16T07:44:41.370Z,94268.00
2024-01-16T07:45:41.449Z,94267.00
2024-01-16T07:46:41.280Z,94274.00
2024-01-16T07:47:41.392Z,94276.00
2024-01-16T07:48:41.422Z,94273.00
2024-01-16T07:49:41.348Z,94276.00
2024-01-16T07:50:41.551Z,94276.00
2024-01-16T07:51:41.292Z,94275.00
2024-01-16T07:52:41.303Z,94277.00
2024-01-16T07:53:41.370Z,94275.00
2024-01-16T07:54:41.470Z,94273.00
2024-01-16T07:55:41.320Z,94274.00
2024-01-16T07:56:41.382Z,94273.00
2024-01-16T07:57:41.413Z,94274.00
2024-01-16T07:58:41.464Z,94273.00
2024-01-16T07:59:42.074Z,94284.00
2024-01-16T08:00:42.025Z,94276.00
2024-01-16T08:01:41.656Z,94282.00
2024-01-16T08:02:41.777Z,94276.00
2024-01-16T08:03:41.772Z,94272.00
2024-01-16T08:04:41.817Z,94273.00
2024-01-16T08:05:42.055Z,94271.00
2024-01-16T08:06:42.044Z,94272.00
2024-01-16T08:07:41.999Z,94271.00
2024-01-16T08:08:42.048Z,94270.00
2024-01-16T08:09:42.137Z,94268.00
2024-01-16T08:10:42.197Z,94268.00
2024-01-16T08:11:42.258Z,94268.00
2024-01-16T08:12:42.220Z,94267.00
2024-01-16T08:13:42.308Z,94267.00
2024-01-16T08:14:42.342Z,94264.00
2024-01-16T08:15:42.444Z,94267.00
2024-01-16T08:16:42.406Z,94259.00
2024-01-16T08:17:42.625Z,94260.00
2024-01-16T08:18:42.599Z,94248.00
2024-01-16T08:19:42.606Z,94258.00
2024-01-16T08:20:42.609Z,94258.00
2024-01-16T08:21:42.629Z,94255.00
2024-01-16T08:22:42.656Z,94253.00
2024-01-16T08:23:42.729Z,94248.00
2024-01-16T08:24:42.983Z,94247.00
2024-01-16T08:25:42.759Z,94247.00
2024-01-16T08:26:42.861Z,94241.00
2024-01-16T08:27:42.840Z,94240.00
2024-01-16T08:28:42.843Z,94243.00
2024-01-16T08:29:42.931Z,94241.00
2024-01-16T08:30:42.941Z,94240.00
2024-01-16T08:31:42.964Z,94236.00
2024-01-16T08:32:43.144Z,94238.00
2024-01-16T08:33:46.748Z,94237.00
2024-01-16T08:34:43.126Z,94234.00
2024-01-16T08:35:43.083Z,94234.00
2024-01-16T08:36:43.057Z,94236.00
2024-01-16T08:37:43.027Z,94238.00
2024-01-16T08:38:43.149Z,94238.00
2024-01-16T08:39:43.029Z,94239.00
2024-01-16T08:40:43.027Z,94237.00
2024-01-16T08:41:43.140Z,94237.00
2024-01-16T08:42:43.045Z,94236.00
2024-01-16T08:43:43.022Z,94231.00
2024-01-16T08:44:43.060Z,94229.00
2024-01-16T08:45:43.034Z,94229.00
2024-01-16T08:46:43.040Z,94229.00
2024-01-16T08:47:43.130Z,94227.00
2024-01-16T08:48:43.166Z,94228.00
2024-01-16T08:49:43.086Z,94235.00
2024-01-16T08:50:43.058Z,94232.00
2024-01-16T08:51:43.077Z,94235.00
2024-01-16T08:52:43.068Z,94234.00
2024-01-16T08:53:43.117Z,94233.00
2024-01-16T08:54:43.064Z,94234.00
2024-01-16T08:55:43.104Z,94235.00
2024-01-16T08:56:43.159Z,94237.00
2024-01-16T08:57:43.137Z,94236.00
2024-01-16T08:58:43.188Z,94235.00
2024-01-16T08:59:43.271Z,94239.00
2024-01-16T09:00:43.286Z,94241.00
2024-01-16T09:01:43.251Z,94235.00
2024-01-16T09:02:43.338Z,94245.00
2024-01-16T09:03:43.289Z,94243.00
2024-01-16T09:04:43.367Z,94235.00
2024-01-16T09:05:43.430Z,94235.00
2024-01-16T09:06:43.568Z,94233.00
2024-01-16T09:07:43.364Z,94231.00
2024-01-16T09:08:43.413Z,94232.00
2024-01-16T09:09:43.391Z,94234.00
2024-01-16T09:10:43.407Z,94232.00
2024-01-16T09:11:43.431Z,94228.00
2024-01-16T09:12:43.452Z,94231.00
2024-01-16T09:13:43.431Z,94227.00
2024-01-16T09:14:43.535Z,94228.00
2024-01-16T09:15:43.474Z,94229.00
2024-01-16T09:16:43.476Z,94221.00
2024-01-16T09:17:43.617Z,94222.00
2024-01-16T09:18:43.553Z,94223.00
2024-01-16T09:19:43.563Z,94223.00
2024-01-16T09:20:43.608Z,94221.00
2024-01-16T09:21:43.519Z,94219.00
2024-01-16T09:22:43.531Z,94214.00
2024-01-16T09:23:44.092Z,94215.00
2024-01-16T09:24:43.545Z,94214.00
2024-01-16T09:25:46.765Z,94211.00
2024-01-16T09:26:43.675Z,94212.00
2024-01-16T09:27:43.596Z,94207.00
2024-01-16T09:28:43.584Z,94207.00
2024-01-16T09:29:43.684Z,94209.00
2024-01-16T09:30:43.725Z,94213.00
2024-01-16T09:31:43.564Z,94209.00
2024-01-16T09:32:43.664Z,94204.00
2024-01-16T09:33:43.707Z,94212.00
2024-01-16T09:34:43.586Z,94213.00
2024-01-16T09:35:43.586Z,94211.00
2024-01-16T09:36:43.573Z,94212.00
2024-01-16T09:37:43.572Z,94208.00
2024-01-16T09:38:43.650Z,94207.00
2024-01-16T09:39:44.005Z,94205.00
2024-01-16T09:40:43.784Z,94204.00
2024-01-16T09:41:43.906Z,94204.00
2024-01-16T09:42:43.877Z,94205.00
2024-01-16T09:43:43.933Z,94206.00
2024-01-16T09:44:44.068Z,94206.00
2024-01-16T09:45:44.043Z,94206.00
2024-01-16T09:46:44.132Z,94202.00
2024-01-16T09:47:44.226Z,94200.00
2024-01-16T09:48:44.243Z,94201.00
2024-01-16T09:49:44.563Z,94198.00
2024-01-16T09:50:44.396Z,94196.00
2024-01-16T09:51:44.390Z,94190.00
2024-01-16T09:52:44.463Z,94190.00
2024-01-16T09:53:44.577Z,94187.00
2024-01-16T09:54:44.591Z,94188.00
2024-01-16T09:55:44.680Z,94186.00
2024-01-16T09:56:44.848Z,94184.00
2024-01-16T09:57:44.779Z,94183.00
2024-01-16T09:58:44.810Z,94183.00
2024-01-16T09:59:44.940Z,94179.00
2024-01-16T10:00:45.017Z,94177.00
2024-01-16T10:01:45.021Z,94173.00
2024-01-16T10:02:45.077Z,94172.00
2024-01-16T10:03:45.150Z,94169.00
2024-01-16T10:04:45.521Z,94168.00
2024-01-16T10:05:45.606Z,94168.00
2024-01-16T10:06:45.387Z,94170.00
2024-01-16T10:07:45.441Z,94168.00
2024-01-16T10:08:45.496Z,94168.00
2024-01-16T10:09:45.529Z,94168.00
2024-01-16T10:10:49.069Z,94164.00
2024-01-16T10:11:45.665Z,94162.00
2024-01-16T10:12:46.017Z,94160.00
2024-01-16T10:13:45.591Z,94161.00
2024-01-16T10:14:45.606Z,94161.00
2024-01-16T10:15:46.044Z,94160.00
2024-01-16T10:16:45.569Z,94158.00
2024-01-16T10:17:45.653Z,94155.00
2024-01-16T10:18:45.750Z,94156.00
2024-01-16T10:19:48.932Z,94152.00
2024-01-16T10:20:45.578Z,94152.00
2024-01-16T10:21:45.599Z,94151.00
2024-01-16T10:22:45.591Z,94150.00
2024-01-16T10:23:45.605Z,94145.00
2024-01-16T10:24:45.597Z,94142.00
2024-01-16T10:25:45.614Z,94140.00
2024-01-16T10:26:45.605Z,94140.00
2024-01-16T10:27:46.047Z,94139.00
2024-01-16T10:28:45.591Z,94142.00
2024-01-16T10:29:50.536Z,94141.00
2024-01-16T10:30:46.711Z,94139.00
2024-01-16T10:31:45.677Z,94138.00
2024-01-16T10:32:45.837Z,94136.00
2024-01-16T10:33:45.793Z,94133.00
2024-01-16T10:34:45.665Z,94129.00
2024-01-16T10:35:45.651Z,94131.00
2024-01-16T10:36:45.587Z,94129.00
2024-01-16T10:37:45.638Z,94129.00
2024-01-16T10:38:45.646Z,94131.00
2024-01-16T10:39:45.667Z,94128.00
2024-01-16T10:40:45.759Z,94128.00
2024-01-16T10:41:45.911Z,94126.00
2024-01-16T10:42:45.912Z,94127.00
2024-01-16T10:43:45.998Z,94127.00
2024-01-16T10:44:46.046Z,94127.00
2024-01-16T10:45:46.098Z,94125.00
2024-01-16T10:46:46.118Z,94128.00
2024-01-16T10:47:46.224Z,94128.00
2024-01-16T10:48:46.603Z,94127.00
2024-01-16T10:49:46.758Z,94125.00
2024-01-16T10:50:46.519Z,94122.00
2024-01-16T10:51:46.470Z,94118.00
2024-01-16T10:52:46.546Z,94120.00
2024-01-16T10:53:46.666Z,94118.00
2024-01-16T10:54:46.704Z,94118.00
2024-01-16T10:55:47.044Z,94117.00
2024-01-16T10:56:46.806Z,94115.00
2024-01-16T10:57:46.888Z,94114.00
2024-01-16T10:58:46.962Z,94112.00
2024-01-16T10:59:47.005Z,94108.00
2024-01-16T11:00:47.089Z,94107.00
2024-01-16T11:01:47.156Z,94104.00
2024-01-16T11:02:47.241Z,94103.00
2024-01-16T11:03:47.595Z,94102.00
2024-01-16T11:04:47.343Z,94103.00
2024-01-16T11:05:47.494Z,94101.00
2024-01-16T11:06:47.646Z,94099.00
2024-01-16T11:07:47.481Z,94096.00
2024-01-16T11:08:47.606Z,94095.00
2024-01-16T11:09:47.611Z,94093.00
2024-01-16T11:10:47.634Z,94090.00
2024-01-16T11:11:48.112Z,94088.00
2024-01-16T11:12:47.725Z,94088.00
2024-01-16T11:13:48.082Z,94086.00
2024-01-16T11:14:47.866Z,94087.00
2024-01-16T11:15:48.084Z,94085.00
2024-01-16T11:16:47.986Z,94083.00
2024-01-16T11:17:48.079Z,94082.00
2024-01-16T11:18:48.125Z,94080.00
2024-01-16T11:20:01.709Z,94081.00
2024-01-16T11:21:49.337Z,94075.00
2024-01-16T11:22:48.200Z,94072.00
2024-01-16T11:23:48.855Z,94073.00
2024-01-16T11:24:48.180Z,94070.00
2024-01-16T11:25:48.188Z,94072.00
2024-01-16T11:26:48.265Z,94071.00
2024-01-16T11:27:48.221Z,94067.00
2024-01-16T11:28:48.143Z,94074.00
2024-01-16T11:29:48.167Z,94068.00
2024-01-16T11:30:48.190Z,94066.00
2024-01-16T11:31:48.182Z,94062.00
2024-01-16T11:32:48.312Z,94056.00
2024-01-16T11:33:48.296Z,94055.00
2024-01-16T11:34:48.171Z,94053.00
2024-01-16T11:35:48.189Z,94050.00
2024-01-16T11:36:48.163Z,94048.00
2024-01-16T11:37:48.194Z,94047.00
2024-01-16T11:38:48.216Z,94044.00
2024-01-16T11:39:48.176Z,94039.00
2024-01-16T11:40:48.639Z,94036.00
2024-01-16T11:41:48.222Z,94034.00
2024-01-16T11:42:48.196Z,94033.00
2024-01-16T11:43:48.284Z,94032.00
2024-01-16T11:44:49.222Z,94026.00
2024-01-16T11:45:48.363Z,94020.00